createdAt,value
2018-07-05T00:00:00.502Z,4.30
2018-07-05T00:02:40.143Z,4.33
2018-07-05T00:05:20.102Z,3.80
2018-07-05T00:07:59.847Z,4.80
2018-07-05T00:10:39.599Z,4.00
2018-07-05T00:13:19.279Z,3.77
2018-07-05T00:15:58.907Z,4.03
2018-07-05T00:18:32.669Z,3.83
2018-07-05T00:21:12.507Z,4.30
2018-07-05T00:23:52.175Z,4.60
2018-07-05T00:26:32.033Z,3.63
2018-07-05T00:29:11.831Z,4.30
2018-07-05T00:31:51.505Z,4.53
2018-07-05T00:34:31.435Z,3.70
2018-07-05T00:37:11.161Z,3.97
2018-07-05T00:39:50.843Z,3.87
2018-07-05T00:42:30.571Z,3.83
2018-07-05T00:45:10.334Z,4.57
2018-07-05T00:47:50.054Z,4.20
2018-07-05T00:50:29.919Z,4.00
2018-07-05T00:53:09.856Z,4.10
2018-07-05T00:55:49.523Z,3.70
2018-07-05T00:58:29.215Z,4.13
2018-07-05T01:01:08.969Z,4.00
2018-07-05T01:03:48.776Z,3.90
2018-07-05T01:06:28.477Z,4.30
2018-07-05T01:09:08.217Z,3.90
2018-07-05T01:11:47.863Z,4.20
2018-07-05T01:14:27.699Z,4.37
2018-07-05T01:17:07.593Z,4.10
2018-07-05T01:19:47.380Z,3.67
2018-07-05T01:22:27.050Z,3.40
2018-07-05T01:25:06.807Z,4.20
2018-07-05T01:27:46.461Z,4.27
2018-07-05T01:30:26.291Z,4.50
2018-07-05T01:33:06.032Z,4.20
2018-07-05T01:35:45.710Z,3.87
2018-07-05T01:38:25.417Z,3.97
2018-07-05T01:41:05.374Z,4.57
2018-07-05T01:43:45.122Z,3.97
2018-07-05T01:46:24.879Z,3.90
2018-07-05T01:49:04.668Z,4.10
2018-07-05T01:51:44.483Z,3.70
2018-07-05T01:54:24.198Z,3.73
2018-07-05T01:57:03.890Z,4.10
2018-07-05T01:59:43.684Z,3.40
2018-07-05T02:02:23.441Z,3.23
2018-07-05T02:05:03.231Z,4.00
2018-07-05T02:07:43.178Z,3.80
2018-07-05T02:10:22.907Z,3.10
2018-07-05T02:13:02.771Z,2.97
2018-07-05T02:15:42.560Z,3.83
2018-07-05T02:18:22.455Z,4.00
2018-07-05T02:21:02.178Z,4.10
2018-07-05T02:23:42.030Z,3.70
2018-07-05T02:26:21.796Z,4.43
2018-07-05T02:29:01.587Z,3.37
2018-07-05T02:31:35.236Z,4.07
2018-07-05T02:34:15.025Z,3.73
2018-07-05T02:36:54.722Z,3.70
2018-07-05T02:39:39.933Z,4.30
2018-07-05T02:42:19.655Z,4.00
2018-07-05T02:44:59.281Z,3.80
2018-07-05T02:47:38.975Z,3.37
2018-07-05T02:50:18.673Z,4.00
2018-07-05T02:52:58.601Z,3.53
2018-07-05T02:55:38.377Z,3.50
2018-07-05T02:58:18.230Z,3.33
2018-07-05T03:00:57.773Z,4.00
2018-07-05T03:03:37.610Z,3.80
2018-07-05T03:06:17.238Z,3.77
2018-07-05T03:08:56.950Z,3.37
2018-07-05T03:11:36.743Z,3.67
2018-07-05T03:14:16.599Z,3.70
2018-07-05T03:16:56.371Z,3.30
2018-07-05T03:19:36.114Z,3.50
2018-07-05T03:22:15.739Z,3.37
2018-07-05T03:24:55.474Z,3.10
2018-07-05T03:27:35.255Z,3.50
2018-07-05T03:30:15.311Z,3.23
2018-07-05T03:32:55.258Z,3.23
2018-07-05T03:35:35.022Z,3.20
2018-07-05T03:38:14.804Z,3.23
2018-07-05T03:40:54.575Z,3.00
2018-07-05T03:43:34.223Z,3.57
2018-07-05T03:46:13.983Z,3.07
2018-07-05T03:48:53.810Z,2.83
2018-07-05T03:51:33.888Z,3.07
2018-07-05T03:54:13.666Z,2.90
2018-07-05T03:56:53.257Z,3.07
2018-07-05T03:59:32.870Z,3.13
2018-07-05T04:02:12.625Z,3.00
2018-07-05T04:04:52.425Z,2.80
2018-07-05T04:07:32.123Z,3.77
2018-07-05T04:10:11.891Z,2.73
2018-07-05T04:12:51.638Z,3.37
2018-07-05T04:15:31.474Z,3.40
2018-07-05T04:18:11.219Z,3.90
2018-07-05T04:20:50.893Z,3.23
2018-07-05T04:23:30.929Z,2.80
2018-07-05T04:26:10.588Z,3.50
2018-07-05T04:28:50.430Z,3.90
2018-07-05T04:31:30.297Z,2.83
2018-07-05T04:34:10.057Z,3.37
2018-07-05T04:36:43.848Z,3.20
2018-07-05T04:39:23.669Z,3.30
2018-07-05T04:42:03.635Z,3.53
2018-07-05T04:44:43.226Z,3.50
2018-07-05T04:47:22.953Z,3.13
2018-07-05T04:50:02.598Z,4.10
2018-07-05T04:52:42.382Z,3.63
2018-07-05T04:55:22.197Z,3.70
2018-07-05T04:58:01.941Z,3.50
2018-07-05T05:00:41.812Z,4.20
2018-07-05T05:03:21.750Z,4.00
2018-07-05T05:06:01.434Z,4.70
2018-07-05T05:08:41.284Z,4.30
2018-07-05T05:11:21.026Z,5.00
2018-07-05T05:14:00.645Z,3.50
2018-07-05T05:16:40.330Z,3.23
2018-07-05T05:19:20.057Z,3.50
2018-07-05T05:21:59.904Z,4.00
2018-07-05T05:24:39.689Z,3.70
2018-07-05T05:27:19.503Z,3.10
2018-07-05T05:29:59.167Z,3.20
2018-07-05T05:32:38.837Z,2.90
2018-07-05T05:35:18.475Z,2.87
2018-07-05T05:37:58.150Z,3.73
2018-07-05T05:40:37.917Z,3.23
2018-07-05T05:43:17.706Z,3.10
2018-07-05T05:45:57.345Z,2.57
2018-07-05T05:48:37.162Z,2.50
2018-07-05T05:51:16.906Z,3.30
2018-07-05T05:53:56.574Z,3.00
2018-07-05T05:56:36.314Z,3.37
2018-07-05T05:59:15.982Z,3.10
2018-07-05T06:01:55.825Z,2.87
2018-07-05T06:04:35.674Z,2.70
2018-07-05T06:07:15.380Z,2.50
2018-07-05T06:09:55.051Z,2.30
2018-07-05T06:12:57.090Z,3.30
2018-07-05T06:16:08.793Z,2.50
2018-07-05T06:18:50.394Z,2.83
2018-07-05T06:21:30.375Z,3.03
2018-07-05T06:24:10.210Z,2.57
2018-07-05T06:26:49.830Z,2.80
2018-07-05T06:29:29.518Z,2.63
2018-07-05T06:32:09.179Z,2.77
2018-07-05T06:34:48.974Z,2.80
2018-07-05T06:37:28.718Z,2.80
2018-07-05T06:40:08.561Z,3.00
2018-07-05T06:42:48.279Z,2.23
2018-07-05T06:45:28.058Z,2.47
2018-07-05T06:48:07.798Z,3.40
2018-07-05T06:50:47.817Z,2.47
2018-07-05T06:53:27.478Z,2.67
2018-07-05T06:56:07.238Z,2.20
2018-07-05T06:58:46.968Z,2.37
2018-07-05T07:01:26.844Z,2.90
2018-07-05T07:04:06.794Z,3.07
2018-07-05T07:06:46.547Z,2.27
2018-07-05T07:09:26.366Z,2.70
2018-07-05T07:12:06.254Z,2.97
2018-07-05T07:14:46.002Z,2.40
2018-07-05T07:17:25.834Z,2.70
2018-07-05T07:20:05.747Z,2.63
2018-07-05T07:22:45.627Z,2.60
2018-07-05T07:25:25.448Z,2.77
2018-07-05T07:28:05.178Z,2.50
2018-07-05T07:30:44.870Z,2.53
2018-07-05T07:33:24.795Z,2.70
2018-07-05T07:36:05.047Z,3.00
2018-07-05T07:38:44.577Z,2.93
2018-07-05T07:41:24.277Z,2.80
2018-07-05T07:43:51.639Z,2.73
2018-07-05T07:46:19.027Z,2.80
2018-07-05T07:48:46.378Z,2.50
2018-07-05T07:51:13.801Z,3.17
2018-07-05T07:53:41.144Z,3.27
2018-07-05T07:56:08.496Z,3.30
2018-07-05T07:58:35.893Z,3.50
2018-07-05T08:01:03.251Z,3.47
2018-07-05T08:03:30.626Z,3.20
2018-07-05T08:05:57.983Z,3.23
2018-07-05T08:08:25.354Z,3.13
2018-07-05T08:10:52.701Z,3.60
2018-07-05T08:13:20.074Z,3.20
2018-07-05T08:15:47.426Z,3.50
2018-07-05T08:18:14.801Z,3.97
2018-07-05T08:20:42.753Z,3.80
2018-07-05T08:23:10.127Z,3.20
2018-07-05T08:25:38.064Z,4.03
2018-07-05T08:28:05.431Z,3.80
2018-07-05T08:30:32.769Z,3.60
2018-07-05T08:33:00.188Z,3.03
2018-07-05T08:35:27.542Z,3.43
2018-07-05T08:37:54.964Z,3.50
2018-07-05T08:40:22.546Z,2.93
2018-07-05T08:42:50.094Z,4.13
2018-07-05T08:45:18.146Z,4.10
2018-07-05T08:47:45.902Z,3.73
2018-07-05T08:50:13.269Z,4.10
2018-07-05T08:52:40.614Z,4.13
2018-07-05T08:55:08.001Z,4.03
2018-07-05T08:57:35.365Z,3.90
2018-07-05T09:00:02.756Z,3.73
2018-07-05T09:02:30.376Z,4.37
2018-07-05T09:04:57.758Z,4.30
2018-07-05T09:07:25.104Z,4.40
2018-07-05T09:09:52.482Z,4.17
2018-07-05T09:12:19.824Z,4.17
2018-07-05T09:14:47.199Z,4.23
2018-07-05T09:17:14.549Z,4.10
2018-07-05T09:19:42.193Z,4.13
2018-07-05T09:22:09.536Z,4.03
2018-07-05T09:24:36.908Z,4.33
2018-07-05T09:27:04.258Z,4.57
2018-07-05T09:29:31.636Z,4.57
2018-07-05T09:31:58.979Z,4.40
2018-07-05T09:34:26.381Z,4.10
2018-07-05T09:36:53.727Z,3.90
2018-07-05T09:39:21.098Z,3.50
2018-07-05T09:41:48.459Z,2.93
2018-07-05T09:44:15.840Z,3.30
2018-07-05T09:46:43.199Z,4.07
2018-07-05T09:49:10.592Z,3.30
2018-07-05T09:51:37.947Z,3.97
2018-07-05T09:54:05.318Z,4.17
2018-07-05T09:56:32.890Z,3.43
2018-07-05T09:59:00.444Z,3.87
2018-07-05T10:01:27.850Z,3.87
2018-07-05T10:03:55.213Z,3.83
2018-07-05T10:06:22.569Z,4.50
2018-07-05T10:08:49.938Z,3.90
2018-07-05T10:11:17.310Z,3.57
2018-07-05T10:13:44.935Z,3.83
2018-07-05T10:16:12.051Z,4.47
2018-07-05T10:18:39.426Z,4.20
2018-07-05T10:21:06.784Z,3.60
2018-07-05T10:23:34.231Z,3.60
2018-07-05T10:26:01.599Z,3.57
2018-07-05T10:28:28.957Z,3.23
2018-07-05T10:31:08.710Z,3.50
2018-07-05T10:33:49.732Z,3.80
2018-07-05T10:36:17.216Z,3.40
2018-07-05T10:38:44.574Z,3.40
2018-07-05T10:41:24.218Z,3.50
2018-07-05T10:44:03.926Z,3.20
2018-07-05T10:46:43.708Z,3.60
2018-07-05T10:49:23.487Z,3.63
2018-07-05T10:52:03.178Z,3.40
2018-07-05T10:54:42.914Z,4.13
2018-07-05T10:57:22.698Z,3.60
2018-07-05T11:00:02.439Z,3.40
2018-07-05T11:02:42.138Z,3.90
2018-07-05T11:05:21.959Z,3.67
2018-07-05T11:08:01.845Z,3.50
2018-07-05T11:10:41.659Z,3.37
2018-07-05T11:13:21.508Z,3.37
2018-07-05T11:16:01.223Z,3.63
2018-07-05T11:18:41.037Z,3.00
2018-07-05T11:21:20.774Z,2.80
2018-07-05T11:24:00.450Z,3.40
2018-07-05T11:26:40.269Z,3.20
2018-07-05T11:29:20.037Z,2.70
2018-07-05T11:32:00.101Z,2.40
2018-07-05T11:34:39.942Z,2.87
2018-07-05T11:37:20.053Z,2.30
2018-07-05T11:39:59.948Z,2.63
2018-07-05T11:42:39.639Z,2.70
2018-07-05T11:45:19.353Z,3.07
2018-07-05T11:47:59.209Z,2.90
2018-07-05T11:50:38.955Z,2.60
2018-07-05T11:53:18.914Z,3.43
2018-07-05T11:55:58.626Z,2.40
2018-07-05T11:58:38.326Z,3.07
2018-07-05T12:01:18.200Z,3.90
2018-07-05T12:03:58.053Z,3.43
2018-07-05T12:06:37.772Z,3.90
2018-07-05T12:09:11.461Z,3.67
2018-07-05T12:11:51.185Z,3.97
2018-07-05T12:14:31.221Z,4.50
2018-07-05T12:17:10.974Z,5.00
2018-07-05T12:19:50.821Z,4.17
2018-07-05T12:22:30.542Z,3.97
2018-07-05T12:25:10.307Z,4.47
2018-07-05T12:27:50.105Z,5.30
2018-07-05T12:30:29.794Z,4.87
2018-07-05T12:33:09.591Z,5.40
2018-07-05T12:35:43.266Z,5.90
2018-07-05T12:38:23.207Z,5.60
2018-07-05T12:41:03.279Z,6.20
2018-07-05T12:43:43.129Z,6.63
2018-07-05T12:46:22.973Z,6.00
2018-07-05T12:49:02.586Z,5.87
2018-07-05T12:51:42.208Z,6.60
2018-07-05T12:54:21.955Z,7.00
2018-07-05T12:57:01.746Z,6.40
2018-07-05T12:59:41.621Z,6.57
2018-07-05T13:02:21.298Z,8.03
2018-07-05T13:05:01.185Z,8.33
2018-07-05T13:07:40.914Z,7.63
2018-07-05T13:10:20.782Z,10.27
2018-07-05T13:13:00.547Z,9.23
2018-07-05T13:15:40.386Z,9.27
2018-07-05T13:18:20.183Z,10.00
2018-07-05T13:20:59.873Z,8.80
2018-07-05T13:23:39.701Z,7.13
2018-07-05T13:26:19.547Z,5.60
2018-07-05T13:28:59.178Z,4.87
2018-07-05T13:31:38.915Z,4.50
2018-07-05T13:34:18.773Z,4.40
2018-07-05T13:36:58.630Z,3.70
2018-07-05T13:39:38.317Z,3.70
2018-07-05T13:42:18.133Z,3.43
2018-07-05T13:44:57.841Z,3.83
2018-07-05T13:47:37.711Z,3.20
2018-07-05T13:50:17.432Z,3.20
2018-07-05T13:52:57.118Z,2.57
2018-07-05T13:55:36.912Z,2.90
2018-07-05T13:58:16.729Z,2.90
2018-07-05T14:00:56.551Z,2.97
2018-07-05T14:03:36.442Z,2.90
2018-07-05T14:06:16.179Z,2.63
2018-07-05T14:08:56.014Z,3.50
2018-07-05T14:11:35.743Z,3.33
2018-07-05T14:14:15.477Z,3.47
2018-07-05T14:16:55.250Z,2.87
2018-07-05T14:19:34.976Z,2.50
2018-07-05T14:22:14.789Z,2.40
2018-07-05T14:24:55.563Z,2.70
2018-07-05T14:27:29.247Z,1.97
2018-07-05T14:30:08.954Z,2.90
2018-07-05T14:32:48.859Z,2.50
2018-07-05T14:35:28.570Z,2.13
2018-07-05T14:38:08.405Z,2.20
2018-07-05T14:40:48.399Z,2.50
2018-07-05T14:43:22.161Z,2.17
2018-07-05T14:46:01.981Z,2.13
2018-07-05T14:48:41.766Z,2.50
2018-07-05T14:51:21.555Z,2.20
2018-07-05T14:54:01.472Z,2.40
2018-07-05T14:56:41.294Z,2.73
2018-07-05T14:59:21.338Z,2.40
2018-07-05T15:02:00.995Z,2.50
2018-07-05T15:04:40.760Z,2.60
2018-07-05T15:07:20.497Z,3.00
2018-07-05T15:10:00.447Z,2.57
2018-07-05T15:12:40.417Z,3.20
2018-07-05T15:15:20.133Z,2.87
2018-07-05T15:20:53.153Z,2.87
2018-07-05T15:23:32.903Z,2.40
2018-07-05T15:26:12.755Z,2.70
2018-07-05T15:28:52.713Z,2.57
2018-07-05T15:31:32.414Z,2.30
2018-07-05T15:34:12.094Z,2.40
2018-07-05T15:36:51.867Z,2.70
2018-07-05T15:39:31.678Z,3.10
2018-07-05T15:42:11.411Z,2.93
2018-07-05T15:44:51.396Z,2.63
2018-07-05T15:47:31.106Z,2.80
2018-07-05T15:50:10.773Z,2.33
2018-07-05T15:52:50.594Z,2.53
2018-07-05T15:55:30.358Z,2.23
2018-07-05T15:58:10.137Z,2.53
2018-07-05T16:00:50.362Z,2.27
2018-07-05T16:03:30.228Z,2.63
2018-07-05T16:06:10.105Z,2.27
2018-07-05T16:11:35.083Z,2.50
2018-07-05T16:14:14.865Z,2.87
2018-07-05T16:16:54.666Z,2.07
2018-07-05T16:19:34.626Z,2.60
2018-07-05T16:22:14.378Z,2.10
2018-07-05T16:24:54.243Z,2.08
2018-07-05T16:27:34.001Z,1.90
2018-07-05T16:30:13.695Z,2.00
2018-07-05T16:32:53.347Z,1.70
2018-07-05T16:35:33.507Z,1.60
2018-07-05T16:38:13.446Z,1.77
2018-07-05T16:40:53.335Z,1.87
2018-07-05T16:43:32.972Z,1.40
2018-07-05T16:46:12.667Z,1.37
2018-07-05T16:48:52.370Z,1.80
2018-07-05T16:51:32.303Z,2.07
2018-07-05T16:54:12.182Z,1.53
2018-07-05T16:56:52.150Z,1.70
2018-07-05T16:59:32.015Z,1.70
2018-07-05T17:02:11.674Z,1.50
2018-07-05T17:04:51.426Z,1.70
2018-07-05T17:07:31.164Z,1.37
2018-07-05T17:10:10.935Z,1.40
2018-07-05T17:12:50.665Z,1.23
2018-07-05T17:15:30.467Z,1.70
2018-07-05T17:18:10.285Z,1.30
2018-07-05T17:20:50.259Z,1.30
2018-07-05T17:23:29.938Z,1.60
2018-07-05T17:26:10.883Z,1.27
2018-07-05T17:28:50.772Z,1.30
2018-07-05T17:31:30.638Z,1.10
2018-07-05T17:34:10.365Z,1.37
2018-07-05T17:36:50.298Z,1.23
2018-07-05T17:39:30.070Z,1.40
2018-07-05T17:42:09.768Z,1.30
2018-07-05T17:44:49.559Z,1.30
2018-07-05T17:47:29.447Z,1.50
2018-07-05T17:50:09.228Z,1.47
2018-07-05T17:52:49.050Z,1.40
2018-07-05T17:55:28.646Z,1.30
2018-07-05T17:58:08.409Z,1.30
2018-07-05T18:00:48.215Z,1.60
2018-07-05T18:03:28.014Z,1.60
2018-07-05T18:06:07.798Z,1.43
2018-07-05T18:08:47.478Z,1.60
2018-07-05T18:11:27.136Z,1.50
2018-07-05T18:14:06.873Z,1.50
2018-07-05T18:16:46.632Z,1.30
2018-07-05T18:19:26.433Z,1.50
2018-07-05T18:22:06.282Z,1.50
2018-07-05T18:24:40.054Z,1.50
2018-07-05T18:27:19.889Z,1.70
2018-07-05T18:29:59.702Z,1.40
2018-07-05T18:32:39.481Z,1.80
2018-07-05T18:35:19.129Z,1.60
2018-07-05T18:37:58.994Z,1.70
2018-07-05T18:40:38.900Z,1.40
2018-07-05T18:43:18.903Z,1.60
2018-07-05T18:45:58.698Z,2.03
2018-07-05T18:48:38.582Z,1.77
2018-07-05T18:51:18.431Z,1.47
2018-07-05T18:53:58.337Z,1.60
2018-07-05T18:56:37.981Z,1.47
2018-07-05T18:59:17.876Z,1.80
2018-07-05T19:01:57.685Z,1.70
2018-07-05T19:04:37.459Z,1.77
2018-07-05T19:07:17.179Z,1.97
2018-07-05T19:09:56.945Z,1.73
2018-07-05T19:12:36.594Z,1.50
2018-07-05T19:15:16.420Z,1.80
2018-07-05T19:17:56.145Z,1.80
2018-07-05T19:20:35.921Z,1.70
2018-07-05T19:23:15.687Z,1.47
2018-07-05T19:25:55.685Z,1.77
2018-07-05T19:28:35.365Z,1.60
2018-07-05T19:31:15.209Z,1.53
2018-07-05T19:33:54.943Z,1.30
2018-07-05T19:36:34.641Z,1.50
2018-07-05T19:39:14.310Z,1.60
2018-07-05T19:41:54.064Z,1.57
2018-07-05T19:44:33.715Z,1.57
2018-07-05T19:47:13.534Z,2.60
2018-07-05T19:49:53.325Z,4.27
2018-07-05T19:52:27.027Z,2.87
2018-07-05T19:55:06.996Z,2.67
2018-07-05T19:57:46.753Z,3.57
2018-07-05T20:00:26.355Z,2.97
2018-07-05T20:03:06.240Z,2.80
2018-07-05T20:05:46.086Z,3.10
2018-07-05T20:08:25.865Z,2.47
2018-07-05T20:11:05.530Z,2.43
2018-07-05T20:13:45.301Z,2.23
2018-07-05T20:16:24.977Z,2.70
2018-07-05T20:19:04.641Z,2.17
2018-07-05T20:21:44.429Z,2.70
2018-07-05T20:24:24.097Z,2.73
2018-07-05T20:27:03.847Z,2.70
2018-07-05T20:29:43.782Z,2.50
2018-07-05T20:32:23.676Z,2.83
2018-07-05T20:35:03.469Z,2.70
2018-07-05T20:37:43.315Z,2.73
2018-07-05T20:40:23.174Z,2.63
2018-07-05T20:43:02.921Z,2.90
2018-07-05T20:45:42.885Z,3.37
2018-07-05T20:48:22.703Z,3.30
2018-07-05T20:51:02.581Z,2.43
2018-07-05T20:53:42.487Z,2.97
2018-07-05T20:56:22.508Z,2.60
2018-07-05T20:59:02.328Z,2.63
2018-07-05T21:01:42.317Z,2.17
2018-07-05T21:04:22.280Z,2.27
2018-07-05T21:07:02.200Z,2.10
2018-07-05T21:09:42.042Z,2.70
2018-07-05T21:12:21.763Z,2.50
2018-07-05T21:15:01.619Z,2.63
2018-07-05T21:17:41.339Z,2.40
2018-07-05T21:20:21.037Z,2.47
2018-07-05T21:23:00.797Z,2.90
2018-07-05T21:25:40.616Z,2.30
2018-07-05T21:28:20.302Z,2.80
2018-07-05T21:30:59.902Z,2.90
2018-07-05T21:33:39.670Z,3.07
2018-07-05T21:36:19.382Z,3.10
2018-07-05T21:38:59.104Z,3.27
2018-07-05T21:41:38.682Z,3.10
2018-07-05T21:44:18.562Z,2.57
2018-07-05T21:46:58.375Z,2.97
2018-07-05T21:49:38.089Z,2.70
2018-07-05T21:52:18.081Z,2.90
2018-07-05T21:54:57.699Z,2.90
2018-07-05T21:57:37.473Z,2.70
2018-07-05T22:00:17.382Z,3.10
2018-07-05T22:02:57.567Z,2.67
2018-07-05T22:05:37.495Z,3.37
2018-07-05T22:08:17.242Z,3.40
2018-07-05T22:10:57.114Z,3.20
2018-07-05T22:13:37.038Z,3.30
2018-07-05T22:16:16.886Z,3.30
2018-07-05T22:19:02.144Z,3.50
2018-07-05T22:21:47.333Z,3.40
2018-07-05T22:24:32.611Z,2.90
2018-07-05T22:27:17.873Z,2.97
2018-07-05T22:30:03.082Z,3.40
2018-07-05T22:32:42.835Z,3.40
2018-07-05T22:35:22.537Z,3.20
2018-07-05T22:38:02.323Z,3.67
2018-07-05T22:40:42.046Z,3.20
2018-07-05T22:43:21.824Z,3.77
2018-07-05T22:46:01.424Z,4.10
2018-07-05T22:48:41.106Z,4.20
2018-07-05T22:51:20.932Z,4.20
2018-07-05T22:54:00.841Z,3.87
2018-07-05T22:56:40.613Z,3.73
2018-07-05T22:59:20.487Z,3.87
2018-07-05T23:02:00.211Z,3.00
2018-07-05T23:04:40.044Z,3.10
2018-07-05T23:07:19.738Z,3.77
2018-07-05T23:09:59.475Z,3.50
2018-07-05T23:12:39.329Z,3.57
2018-07-05T23:15:19.082Z,4.13
2018-07-05T23:17:58.917Z,4.50
2018-07-05T23:20:38.882Z,3.77
2018-07-05T23:23:18.631Z,5.00
2018-07-05T23:25:58.404Z,5.20
2018-07-05T23:28:38.063Z,4.00
2018-07-05T23:31:17.966Z,3.80
2018-07-05T23:33:57.703Z,4.07
2018-07-05T23:36:37.376Z,4.30
2018-07-05T23:39:17.105Z,3.70
2018-07-05T23:41:56.932Z,4.27
2018-07-05T23:44:36.781Z,4.60
2018-07-05T23:47:16.725Z,4.33
2018-07-05T23:49:56.604Z,4.50
2018-07-05T23:52:36.273Z,4.23
2018-07-05T23:55:15.938Z,4.40
2018-07-05T23:57:55.577Z,4.03
